Impacts METAR Board INFO
IDs:

KPHL - Philadelphia Intl, PA, US

Updated at: 1200 UTC 12 Dec 2017
Potential Impact None Slight Moderate High
Time12/00Z 12/01Z 12/02Z 12/03Z 12/04Z 12/05Z 12/06Z 12/07Z 12/08Z 12/09Z 12/10Z 12/11Z 12/12Z
VIS10 10 10 10 10 10 10 10 10 10 10 10 10
CIG260 260 90 90 90 220 170 140 90 100 170 100 100
CoverBKNBKNBKNOVCOVCOVCOVCOVCOVCOVCOVCOVCOVC
FltCatVFRVFRVFRVFRVFRVFRVFRVFRVFRVFRVFRVFRVFR
WX--------------------------
WDir130120120130140110110130110160170150190
WSpd4 5 3 6 6 4 3 3 4 9 10 10 9
WGst-- -- -- -- -- -- -- -- -- -- -- -- --
Raw hourly METARs
KPHL 112354Z 13004KT 10SM FEW120 SCT200 BKN260 03/M04 A3000 RMK AO2 SLP157 T00331044 10056 20017 58005
KPHL 120054Z 12005KT 10SM SCT110 SCT200 BKN260 02/M04 A3000 RMK AO2 SLP158 T00171044 $
KPHL 120154Z 12003KT 10SM BKN090 BKN170 BKN260 02/M04 A2999 RMK AO2 SLP156 T00221044 $
KPHL 120254Z 13006KT 10SM OVC090 02/M04 A2998 RMK AO2 SLP151 T00221044 58007 $
KPHL 120354Z 14006KT 10SM BKN090 OVC120 02/M04 A2994 RMK AO2 SLP138 T00221044 $
KPHL 120454Z 11004KT 10SM SCT160 OVC220 02/M04 A2991 RMK AO2 SLP128 T00221039 400560011 $
KPHL 120554Z 11003KT 10SM BKN170 OVC240 02/M03 A2987 RMK AO2 SLP113 T00221028 10033 20017 58037 $
KPHL 120654Z 13003KT 10SM OVC140 03/M02 A2984 RMK AO2 SLP105 T00281022 $
KPHL 120754Z 11004KT 10SM BKN090 OVC120 03/M01 A2980 RMK AO2 PRESFR SLP091 T00281011 $
KPHL 120854Z 16009KT 10SM BKN100 OVC140 06/01 A2975 RMK AO2 SLP075 T00560006 58039 $
KPHL 120954Z 17010KT 10SM FEW100 BKN170 OVC210 06/01 A2971 RMK AO2 SLP061 T00610011 $
KPHL 121054Z 15010KT 10SM BKN100 BKN150 OVC190 06/01 A2966 RMK AO2 SLP045 T00610011 $
KPHL 121154Z 19009KT 10SM BKN100 OVC120 07/02 A2965 RMK AO2 SLP039 T00720017 10072 20022 56035 $